createdAt,value
2023-04-30T00:04:01.526Z,19.53
2023-04-30T00:08:24.588Z,18.47
2023-04-30T00:12:46.592Z,18.20
2023-04-30T00:17:08.626Z,18.87
2023-04-30T00:21:30.377Z,20.40
2023-04-30T00:25:53.648Z,18.50
2023-04-30T00:30:15.395Z,18.77
2023-04-30T00:34:37.343Z,17.80
2023-04-30T00:38:59.098Z,17.37
2023-04-30T00:43:22.513Z,17.87
2023-04-30T00:47:44.413Z,16.83
2023-04-30T00:52:06.466Z,16.77
2023-04-30T00:56:29.138Z,14.93
2023-04-30T01:00:54.635Z,16.00
2023-04-30T01:05:16.481Z,15.87
2023-04-30T01:09:38.308Z,15.93
2023-04-30T01:14:07.143Z,15.37
2023-04-30T01:18:35.665Z,14.57
2023-04-30T01:23:11.300Z,16.30
2023-04-30T01:28:00.206Z,16.20
2023-04-30T01:32:21.931Z,14.63
2023-04-30T01:36:54.517Z,14.80
2023-04-30T01:41:23.857Z,14.03
2023-04-30T01:45:57.612Z,12.83
2023-04-30T01:50:28.843Z,13.37
2023-04-30T01:54:55.411Z,13.37
2023-04-30T01:59:17.691Z,14.03
2023-04-30T02:03:40.950Z,13.10
2023-04-30T02:08:03.184Z,12.63
2023-04-30T02:12:24.969Z,11.73
2023-04-30T02:16:46.742Z,12.50
2023-04-30T02:21:11.039Z,12.20
2023-04-30T02:25:32.882Z,12.03
2023-04-30T02:29:54.800Z,11.30
2023-04-30T02:34:17.206Z,10.57
2023-04-30T02:38:40.278Z,10.90
2023-04-30T02:43:02.224Z,11.80
2023-04-30T02:47:24.081Z,10.97
2023-04-30T02:51:46.048Z,11.83
2023-04-30T02:56:09.190Z,10.57
2023-04-30T03:00:30.952Z,10.60
2023-04-30T03:04:52.728Z,10.77
2023-04-30T03:09:14.507Z,11.27
2023-04-30T03:13:37.658Z,11.53
2023-04-30T03:17:59.588Z,10.93
2023-04-30T03:22:21.351Z,11.63
2023-04-30T03:26:43.243Z,11.33
2023-04-30T03:31:06.668Z,11.53
2023-04-30T03:35:28.594Z,11.63
2023-04-30T03:39:50.560Z,11.40
2023-04-30T03:44:12.379Z,11.83
2023-04-30T03:48:35.460Z,11.63
2023-04-30T03:52:57.363Z,11.53
2023-04-30T03:57:19.593Z,12.13
2023-04-30T04:01:41.448Z,12.80
2023-04-30T04:06:04.727Z,14.07
2023-04-30T04:10:26.615Z,13.27
2023-04-30T04:14:48.359Z,13.23
2023-04-30T04:19:10.157Z,13.27
2023-04-30T04:23:33.246Z,14.03
2023-04-30T04:27:54.986Z,13.20
2023-04-30T04:32:16.724Z,13.60
2023-04-30T04:36:38.480Z,13.73
2023-04-30T04:41:01.550Z,13.17
2023-04-30T04:45:23.498Z,12.90
2023-04-30T04:49:45.250Z,12.43
2023-04-30T04:54:07.049Z,13.07
2023-04-30T04:58:30.174Z,12.57
2023-04-30T05:02:52.014Z,13.00
2023-04-30T05:07:13.808Z,12.43
2023-04-30T05:11:35.756Z,11.97
2023-04-30T05:15:59.157Z,12.23
2023-04-30T05:20:21.142Z,12.50
2023-04-30T05:24:42.867Z,11.73
2023-04-30T05:29:04.609Z,11.03
2023-04-30T05:33:27.722Z,11.37
2023-04-30T05:37:49.832Z,10.17
2023-04-30T05:42:12.579Z,9.80
2023-04-30T05:46:34.639Z,9.23
2023-04-30T05:50:57.787Z,9.00
2023-04-30T05:55:19.574Z,9.40
2023-04-30T05:59:41.570Z,8.90
2023-04-30T06:04:03.518Z,9.10
2023-04-30T06:08:26.583Z,8.70
2023-04-30T06:12:48.444Z,9.07
2023-04-30T06:17:10.256Z,9.30
2023-04-30T06:21:32.057Z,9.30
2023-04-30T06:25:55.187Z,9.53
2023-04-30T06:30:17.358Z,8.50
2023-04-30T06:34:39.106Z,9.03
2023-04-30T06:39:00.841Z,9.30
2023-04-30T06:43:24.249Z,8.87
2023-04-30T06:47:46.045Z,9.43
2023-04-30T06:52:07.871Z,9.17
2023-04-30T06:56:29.623Z,9.20
2023-04-30T07:00:52.914Z,9.27
2023-04-30T07:05:14.800Z,8.73
2023-04-30T07:09:36.536Z,9.97
2023-04-30T07:13:58.254Z,9.20
2023-04-30T07:18:21.335Z,9.20
2023-04-30T07:22:43.567Z,9.27
2023-04-30T07:27:05.360Z,8.47
2023-04-30T07:31:27.172Z,9.53
2023-04-30T07:35:50.463Z,9.30
2023-04-30T07:40:15.075Z,8.93
2023-04-30T07:44:39.127Z,8.30
2023-04-30T07:49:00.874Z,8.77
2023-04-30T07:53:24.265Z,9.23
2023-04-30T07:57:46.051Z,9.33
2023-04-30T08:02:08.763Z,9.60
2023-04-30T08:06:30.639Z,8.97
2023-04-30T08:10:53.905Z,8.10
2023-04-30T08:15:15.759Z,8.07
2023-04-30T08:19:37.664Z,8.40
2023-04-30T08:23:59.453Z,7.87
2023-04-30T08:28:22.540Z,8.17
2023-04-30T08:32:44.318Z,7.90
2023-04-30T08:37:06.471Z,7.93
2023-04-30T08:41:33.019Z,7.20
2023-04-30T08:45:57.006Z,7.37
2023-04-30T08:50:19.047Z,7.60
2023-04-30T08:54:42.350Z,7.10
2023-04-30T08:59:04.122Z,6.80
2023-04-30T09:03:27.410Z,6.28
2023-04-30T09:08:02.606Z,6.30
2023-04-30T09:12:25.583Z,6.18
2023-04-30T09:16:48.682Z,5.32
2023-04-30T09:21:11.800Z,5.18
2023-04-30T09:25:39.341Z,4.80
2023-04-30T09:30:01.164Z,5.95
2023-04-30T09:34:34.004Z,6.40
2023-04-30T09:38:57.545Z,5.85
2023-04-30T09:43:19.296Z,6.57
2023-04-30T09:47:41.191Z,6.10
2023-04-30T09:52:03.042Z,5.57
2023-04-30T09:56:29.176Z,6.30
2023-04-30T10:00:53.489Z,6.00
2023-04-30T10:05:17.335Z,5.18
2023-04-30T10:09:41.724Z,4.38
2023-04-30T10:14:10.120Z,4.72
2023-04-30T10:18:34.611Z,3.88
2023-04-30T10:22:57.019Z,4.20
2023-04-30T10:27:19.221Z,4.00
2023-04-30T10:31:46.356Z,2.80
2023-04-30T10:36:14.317Z,2.60
2023-04-30T10:40:36.742Z,2.72
2023-04-30T10:44:58.715Z,2.20
2023-04-30T10:49:26.569Z,2.40
2023-04-30T10:53:50.990Z,2.78
2023-04-30T10:58:23.905Z,3.35
2023-04-30T11:02:47.078Z,3.25
2023-04-30T11:07:10.643Z,3.65
2023-04-30T11:11:34.039Z,2.88
2023-04-30T11:16:02.981Z,2.67
2023-04-30T11:20:26.273Z,2.20
2023-04-30T11:25:06.448Z,2.35
2023-04-30T11:29:28.397Z,1.95
2023-04-30T11:33:50.651Z,1.70
2023-04-30T11:38:13.300Z,1.75
2023-04-30T11:42:37.195Z,1.60
2023-04-30T11:47:00.291Z,3.00
2023-04-30T11:51:23.524Z,1.30
2023-04-30T11:55:45.238Z,3.53
2023-04-30T12:00:16.963Z,1.42
2023-04-30T12:04:38.792Z,1.50
2023-04-30T12:09:02.349Z,1.20
2023-04-30T12:13:24.050Z,1.10
2023-04-30T12:17:47.208Z,1.00
2023-04-30T12:22:09.456Z,1.00
2023-04-30T12:26:37.735Z,1.10
2023-04-30T12:30:59.709Z,1.20
2023-04-30T12:35:24.017Z,1.30
2023-04-30T12:39:47.354Z,1.02
2023-04-30T12:44:17.086Z,1.00
2023-04-30T12:48:44.093Z,1.00
2023-04-30T12:53:07.463Z,1.08
2023-04-30T12:57:29.268Z,1.10
2023-04-30T13:01:51.004Z,0.90
2023-04-30T13:06:12.843Z,1.10
2023-04-30T13:10:35.961Z,1.00
2023-04-30T13:14:57.717Z,1.10
2023-04-30T13:19:19.732Z,1.05
2023-04-30T13:23:51.870Z,1.00
2023-04-30T13:28:16.321Z,0.93
2023-04-30T13:32:38.184Z,1.00
2023-04-30T13:36:59.915Z,1.00
2023-04-30T13:41:21.698Z,1.10
2023-04-30T13:45:44.786Z,0.80
2023-04-30T13:50:08.277Z,0.80
2023-04-30T13:54:29.997Z,0.70
2023-04-30T13:58:51.700Z,1.00
2023-04-30T14:03:14.893Z,0.90
2023-04-30T14:07:36.710Z,1.00
2023-04-30T14:11:58.593Z,0.80
2023-04-30T14:16:20.602Z,0.90
2023-04-30T14:20:43.740Z,0.80
2023-04-30T14:25:06.773Z,1.00
2023-04-30T14:29:28.547Z,0.77
2023-04-30T14:33:50.264Z,1.03
2023-04-30T14:38:13.779Z,0.80
2023-04-30T14:42:36.557Z,0.90
2023-04-30T14:46:58.438Z,1.13
2023-04-30T14:51:20.166Z,1.10
2023-04-30T14:55:43.454Z,1.40
2023-04-30T15:00:05.976Z,1.00
2023-04-30T15:04:27.706Z,1.30
2023-04-30T15:08:49.517Z,0.90
2023-04-30T15:13:12.635Z,1.00
2023-04-30T15:17:35.258Z,0.97
2023-04-30T15:21:57.013Z,0.80
2023-04-30T15:26:18.966Z,0.83
2023-04-30T15:30:42.058Z,2.77
2023-04-30T15:35:04.326Z,2.07
2023-04-30T15:39:26.095Z,5.27
2023-04-30T15:43:48.055Z,1.10
2023-04-30T15:48:11.173Z,0.90
2023-04-30T15:52:32.917Z,0.90
2023-04-30T15:56:54.649Z,1.00
2023-04-30T16:01:16.671Z,1.13
2023-04-30T16:05:40.026Z,1.40
2023-04-30T16:10:02.487Z,1.10
2023-04-30T16:14:24.532Z,1.13
2023-04-30T16:18:46.505Z,1.00
2023-04-30T16:23:09.626Z,1.17
2023-04-30T16:27:31.369Z,1.10
2023-04-30T16:31:53.608Z,2.27
2023-04-30T16:36:15.343Z,3.83
2023-04-30T16:40:38.425Z,4.70
2023-04-30T16:45:00.172Z,1.73
2023-04-30T16:49:21.887Z,1.90
2023-04-30T16:53:44.016Z,2.10
2023-04-30T16:58:07.147Z,1.30
2023-04-30T17:02:28.976Z,1.27
2023-04-30T17:06:50.887Z,1.60
2023-04-30T17:11:12.700Z,0.90
2023-04-30T17:15:35.811Z,1.20
2023-04-30T17:19:57.774Z,0.97
2023-04-30T17:24:19.579Z,1.90
2023-04-30T17:28:41.310Z,3.70
2023-04-30T17:33:04.448Z,1.50
2023-04-30T17:37:26.152Z,2.03
2023-04-30T17:41:48.033Z,1.10
2023-04-30T17:46:09.805Z,0.93
2023-04-30T17:50:33.025Z,0.80
2023-04-30T17:54:55.046Z,0.90
2023-04-30T17:59:16.864Z,0.90
2023-04-30T18:03:38.825Z,0.90
2023-04-30T18:08:01.930Z,0.90
2023-04-30T18:12:23.727Z,1.10
2023-04-30T18:16:45.545Z,1.00
2023-04-30T18:21:07.461Z,1.00
2023-04-30T18:25:30.585Z,1.20
2023-04-30T18:29:52.420Z,1.00
2023-04-30T18:34:14.251Z,1.20
2023-04-30T18:38:36.230Z,1.20
2023-04-30T18:42:59.288Z,1.17
2023-04-30T18:47:21.057Z,0.93
2023-04-30T18:51:42.845Z,1.20
2023-04-30T18:56:05.145Z,1.20
2023-04-30T19:00:28.241Z,1.23
2023-04-30T19:04:50.487Z,1.20
2023-04-30T19:09:12.243Z,1.40
2023-04-30T19:13:33.975Z,1.30
2023-04-30T19:18:00.182Z,1.50
2023-04-30T19:22:21.948Z,1.20
2023-04-30T19:26:43.694Z,1.27
2023-04-30T19:31:05.568Z,1.50
2023-04-30T19:35:28.908Z,1.30
2023-04-30T19:39:50.634Z,1.37
2023-04-30T19:44:12.378Z,1.30
2023-04-30T19:48:34.107Z,1.60
2023-04-30T19:52:57.448Z,1.47
2023-04-30T19:57:19.217Z,1.43
2023-04-30T20:01:41.297Z,1.50
2023-04-30T20:06:03.086Z,1.50
2023-04-30T20:10:26.493Z,1.40
2023-04-30T20:14:48.234Z,1.53
2023-04-30T20:19:09.998Z,1.70
2023-04-30T20:23:31.761Z,1.97
2023-04-30T20:27:54.832Z,5.00
2023-04-30T20:32:16.585Z,3.97
2023-04-30T20:36:38.396Z,3.53
2023-04-30T20:41:00.176Z,2.40
2023-04-30T20:45:23.436Z,2.40
2023-04-30T20:49:45.217Z,1.80
2023-04-30T20:54:06.907Z,1.87
2023-04-30T20:58:28.735Z,1.53
2023-04-30T21:02:52.312Z,1.40
2023-04-30T21:07:14.075Z,1.30
2023-04-30T21:11:36.041Z,1.40
2023-04-30T21:15:57.819Z,1.70
2023-04-30T21:20:20.888Z,1.60
2023-04-30T21:24:42.667Z,1.50
2023-04-30T21:29:04.651Z,1.40
2023-04-30T21:33:26.455Z,1.80
2023-04-30T21:37:49.519Z,1.77
2023-04-30T21:42:11.234Z,1.60
2023-04-30T21:46:33.044Z,1.70
2023-04-30T21:50:54.807Z,1.90
2023-04-30T21:55:17.922Z,1.70
2023-04-30T21:59:39.617Z,1.83
2023-04-30T22:04:01.695Z,1.77
2023-04-30T22:08:23.582Z,1.93
2023-04-30T22:12:48.001Z,2.03
2023-04-30T22:17:10.064Z,2.00
2023-04-30T22:21:31.899Z,2.00
2023-04-30T22:25:53.638Z,2.40
2023-04-30T22:30:16.739Z,2.27
2023-04-30T22:34:39.725Z,1.93
2023-04-30T22:39:01.458Z,2.17
2023-04-30T22:43:23.667Z,2.07
2023-04-30T22:47:47.037Z,2.83
2023-04-30T22:52:08.830Z,2.73
2023-04-30T22:56:30.582Z,3.00
2023-04-30T23:00:52.437Z,2.37
2023-04-30T23:05:15.964Z,3.03
2023-04-30T23:09:37.692Z,2.33
2023-04-30T23:13:59.426Z,2.60
2023-04-30T23:18:21.139Z,2.40
2023-04-30T23:22:44.249Z,2.47
2023-04-30T23:27:05.962Z,2.73
2023-04-30T23:31:27.716Z,2.27
2023-04-30T23:35:49.610Z,2.83
2023-04-30T23:40:12.862Z,2.60
2023-04-30T23:44:34.545Z,2.80
2023-04-30T23:48:56.260Z,2.63
2023-04-30T23:53:17.955Z,2.47
2023-04-30T23:57:41.093Z,2.60
